createdAt,value
2024-04-24T00:00:57.973Z,12.58
2024-04-24T00:01:55.007Z,12.69
2024-04-24T00:02:54.033Z,12.76
2024-04-24T00:03:51.094Z,12.70
2024-04-24T00:04:48.146Z,12.78
2024-04-24T00:05:45.132Z,12.54
2024-04-24T00:06:42.126Z,12.72
2024-04-24T00:07:39.226Z,12.70
2024-04-24T00:08:36.179Z,12.66
2024-04-24T00:09:33.127Z,12.55
2024-04-24T00:10:30.103Z,12.60
2024-04-24T00:11:27.631Z,12.45
2024-04-24T00:12:24.891Z,12.62
2024-04-24T00:13:22.022Z,12.51
2024-04-24T00:14:19.063Z,12.75
2024-04-24T00:15:16.386Z,12.88
2024-04-24T00:16:13.379Z,12.82
2024-04-24T00:17:11.498Z,12.86
2024-04-24T00:18:08.576Z,12.86
2024-04-24T00:19:05.614Z,12.46
2024-04-24T00:20:02.793Z,12.43
2024-04-24T00:20:59.899Z,12.50
2024-04-24T00:21:56.862Z,12.53
2024-04-24T00:22:53.897Z,12.50
2024-04-24T00:23:50.902Z,12.22
2024-04-24T00:24:47.861Z,12.47
2024-04-24T00:25:44.858Z,12.41
2024-04-24T00:26:42.459Z,12.19
2024-04-24T00:27:39.433Z,12.18
2024-04-24T00:28:36.391Z,12.35
2024-04-24T00:29:33.399Z,12.11
2024-04-24T00:30:30.419Z,12.42
2024-04-24T00:31:27.379Z,12.29
2024-04-24T00:32:24.469Z,12.08
2024-04-24T00:33:21.536Z,12.11
2024-04-24T00:34:18.656Z,12.09
2024-04-24T00:35:15.702Z,12.11
2024-04-24T00:36:12.790Z,12.12
2024-04-24T00:37:09.765Z,11.87
2024-04-24T00:38:06.833Z,12.21
2024-04-24T00:39:03.895Z,11.98
2024-04-24T00:40:00.872Z,12.31
2024-04-24T00:40:57.943Z,12.32
2024-04-24T00:41:54.998Z,12.31
2024-04-24T00:42:52.032Z,12.44
2024-04-24T00:43:49.144Z,12.43
2024-04-24T00:44:46.193Z,12.24
2024-04-24T00:45:45.954Z,12.23
2024-04-24T00:46:47.045Z,11.98
2024-04-24T00:47:45.075Z,12.03
2024-04-24T00:48:45.013Z,12.19
2024-04-24T00:49:44.216Z,12.05
2024-04-24T00:50:42.278Z,12.20
2024-04-24T00:51:41.420Z,11.86
2024-04-24T00:52:38.483Z,11.99
2024-04-24T00:53:36.628Z,11.70
2024-04-24T00:54:33.688Z,11.83
2024-04-24T00:55:32.993Z,11.80
2024-04-24T00:56:30.317Z,12.02
2024-04-24T00:57:27.385Z,11.98
2024-04-24T00:58:24.482Z,11.65
2024-04-24T00:59:21.736Z,11.78
2024-04-24T01:00:20.293Z,11.27
2024-04-24T01:01:19.645Z,11.66
2024-04-24T01:02:17.153Z,11.56
2024-04-24T01:03:14.576Z,11.35
2024-04-24T01:04:11.644Z,11.35
2024-04-24T01:05:08.909Z,11.71
2024-04-24T01:06:06.467Z,11.71
2024-04-24T01:07:04.183Z,11.72
2024-04-24T01:08:01.303Z,11.85
2024-04-24T01:08:58.434Z,11.91
2024-04-24T01:09:55.459Z,11.82
2024-04-24T01:11:01.829Z,11.59
2024-04-24T01:12:01.745Z,11.61
2024-04-24T01:12:58.824Z,11.50
2024-04-24T01:13:55.849Z,11.41
2024-04-24T01:14:52.884Z,11.38
2024-04-24T01:15:57.756Z,11.27
2024-04-24T01:16:55.087Z,11.89
2024-04-24T01:17:55.963Z,11.16
2024-04-24T01:19:22.316Z,11.52
2024-04-24T01:20:27.334Z,11.70
2024-04-24T01:21:53.097Z,11.74
2024-04-24T01:22:55.905Z,11.95
2024-04-24T01:24:05.654Z,11.85
2024-04-24T01:25:25.633Z,11.74
2024-04-24T01:26:37.869Z,11.93
2024-04-24T01:27:34.937Z,12.02
2024-04-24T01:28:32.521Z,11.48
2024-04-24T01:29:29.579Z,11.65
2024-04-24T01:30:26.680Z,11.84
2024-04-24T01:31:23.648Z,11.85
2024-04-24T01:32:20.639Z,11.80
2024-04-24T01:33:18.295Z,12.08
2024-04-24T01:34:16.167Z,12.05
2024-04-24T01:35:13.132Z,11.79
2024-04-24T01:36:10.196Z,11.83
2024-04-24T01:37:07.173Z,11.96
2024-04-24T01:38:06.059Z,11.87
2024-04-24T01:39:05.834Z,11.87
2024-04-24T01:40:03.088Z,12.12
2024-04-24T01:41:00.135Z,11.94
2024-04-24T01:41:57.162Z,12.15
2024-04-24T01:42:54.256Z,11.84
2024-04-24T01:43:51.360Z,11.80
2024-04-24T01:44:48.349Z,11.84
2024-04-24T01:45:45.398Z,11.84
2024-04-24T01:46:42.434Z,11.87
2024-04-24T01:47:39.525Z,12.05
2024-04-24T01:48:36.608Z,11.92
2024-04-24T01:49:33.665Z,11.71
2024-04-24T01:50:30.630Z,11.84
2024-04-24T01:51:27.634Z,11.78
2024-04-24T01:52:24.597Z,11.79
2024-04-24T01:53:21.657Z,12.03
2024-04-24T01:54:18.669Z,11.79
2024-04-24T01:55:15.635Z,11.71
2024-04-24T01:56:13.637Z,11.66
2024-04-24T01:57:10.733Z,11.69
2024-04-24T01:58:07.718Z,11.71
2024-04-24T01:59:04.796Z,11.71
2024-04-24T02:00:01.795Z,11.56
2024-04-24T02:00:58.853Z,11.76
2024-04-24T02:01:55.979Z,11.81
2024-04-24T02:02:53.127Z,11.90
2024-04-24T02:03:50.230Z,11.52
2024-04-24T02:04:47.222Z,11.57
2024-04-24T02:05:44.308Z,11.58
2024-04-24T02:06:41.326Z,11.64
2024-04-24T02:07:38.267Z,11.37
2024-04-24T02:08:37.061Z,11.65
2024-04-24T02:09:34.070Z,11.49
2024-04-24T02:10:31.029Z,11.30
2024-04-24T02:11:51.336Z,11.42
2024-04-24T02:12:53.942Z,11.71
2024-04-24T02:13:50.898Z,11.83
2024-04-24T02:14:47.840Z,11.90
2024-04-24T02:15:44.869Z,11.78
2024-04-24T02:16:41.796Z,11.64
2024-04-24T02:17:38.811Z,11.79
2024-04-24T02:18:35.876Z,11.96
2024-04-24T02:19:32.917Z,11.72
2024-04-24T02:20:29.882Z,12.06
2024-04-24T02:21:26.879Z,11.70
2024-04-24T02:22:23.879Z,12.03
2024-04-24T02:23:24.540Z,11.97
2024-04-24T02:24:41.447Z,12.06
2024-04-24T02:25:38.418Z,11.86
2024-04-24T02:26:35.669Z,12.01
2024-04-24T02:27:32.704Z,12.18
2024-04-24T02:28:29.626Z,12.12
2024-04-24T02:29:30.250Z,12.24
2024-04-24T02:30:31.578Z,11.88
2024-04-24T02:31:28.607Z,12.14
2024-04-24T02:32:25.650Z,12.01
2024-04-24T02:33:22.831Z,11.80
2024-04-24T02:34:19.855Z,11.84
2024-04-24T02:35:17.079Z,11.98
2024-04-24T02:36:14.182Z,12.12
2024-04-24T02:37:11.246Z,12.20
2024-04-24T02:38:09.118Z,12.09
2024-04-24T02:39:06.139Z,12.16
2024-04-24T02:40:03.298Z,12.20
2024-04-24T02:41:00.443Z,12.17
2024-04-24T02:41:57.556Z,12.16
2024-04-24T02:42:54.574Z,12.13
2024-04-24T02:43:51.523Z,12.33
2024-04-24T02:44:48.477Z,12.14
2024-04-24T02:45:47.104Z,12.14
2024-04-24T02:46:44.109Z,12.02
2024-04-24T02:47:41.193Z,12.10
2024-04-24T02:48:38.292Z,12.36
2024-04-24T02:49:35.333Z,12.15
2024-04-24T02:50:33.063Z,12.38
2024-04-24T02:51:30.094Z,12.27
2024-04-24T02:52:27.149Z,12.36
2024-04-24T02:53:24.279Z,12.29
2024-04-24T02:54:21.366Z,12.44
2024-04-24T02:55:18.413Z,12.35
2024-04-24T02:56:15.452Z,12.12
2024-04-24T02:57:12.439Z,12.37
2024-04-24T02:58:09.443Z,12.28
2024-04-24T02:59:06.461Z,12.32
2024-04-24T03:00:04.149Z,12.31
2024-04-24T03:01:01.159Z,12.27
2024-04-24T03:01:58.237Z,12.57
2024-04-24T03:02:55.337Z,12.31
2024-04-24T03:03:52.349Z,12.64
2024-04-24T03:04:49.347Z,12.44
2024-04-24T03:05:46.365Z,12.28
2024-04-24T03:06:44.699Z,12.38
2024-04-24T03:07:41.914Z,12.56
2024-04-24T03:08:38.976Z,12.56
2024-04-24T03:09:36.226Z,12.48
2024-04-24T03:10:33.252Z,12.38
2024-04-24T03:11:30.349Z,12.36
2024-04-24T03:12:27.564Z,12.51
2024-04-24T03:13:24.593Z,12.46
2024-04-24T03:14:22.237Z,12.37
2024-04-24T03:15:19.391Z,12.30
2024-04-24T03:16:16.428Z,11.97
2024-04-24T03:17:13.592Z,11.91
2024-04-24T03:18:10.800Z,12.02
2024-04-24T03:19:07.909Z,12.40
2024-04-24T03:20:05.326Z,12.54
2024-04-24T03:21:02.430Z,12.60
2024-04-24T03:21:59.576Z,12.51
2024-04-24T03:22:56.612Z,12.25
2024-04-24T03:23:53.607Z,12.26
2024-04-24T03:24:50.538Z,12.25
2024-04-24T03:25:47.685Z,12.26
2024-04-24T03:26:44.746Z,12.13
2024-04-24T03:27:41.763Z,12.14
2024-04-24T03:28:39.810Z,11.84
2024-04-24T03:29:36.792Z,12.27
2024-04-24T03:30:33.795Z,12.15
2024-04-24T03:31:35.079Z,12.24
2024-04-24T03:32:32.177Z,12.17
2024-04-24T03:33:29.371Z,12.43
2024-04-24T03:34:26.566Z,12.25
2024-04-24T03:35:23.639Z,12.36
2024-04-24T03:36:20.790Z,12.53
2024-04-24T03:37:17.756Z,12.46
2024-04-24T03:38:14.720Z,12.65
2024-04-24T03:39:11.866Z,12.38
2024-04-24T03:40:09.121Z,12.50
2024-04-24T03:41:06.127Z,12.53
2024-04-24T03:42:03.081Z,12.25
2024-04-24T03:43:00.105Z,12.41
2024-04-24T03:43:57.115Z,12.36
2024-04-24T03:44:54.137Z,12.55
2024-04-24T03:45:51.118Z,12.52
2024-04-24T03:46:48.177Z,12.53
2024-04-24T03:47:45.269Z,12.66
2024-04-24T03:48:42.624Z,12.39
2024-04-24T03:49:39.730Z,12.38
2024-04-24T03:50:36.734Z,12.46
2024-04-24T03:51:34.088Z,12.47
2024-04-24T03:52:31.005Z,12.57
2024-04-24T03:53:28.045Z,12.62
2024-04-24T03:54:25.025Z,12.63
2024-04-24T03:55:22.046Z,12.60
2024-04-24T03:56:19.034Z,12.62
2024-04-24T03:57:16.107Z,12.64
2024-04-24T03:58:13.081Z,12.72
2024-04-24T03:59:10.084Z,12.71
2024-04-24T04:00:07.859Z,12.52
2024-04-24T04:01:04.930Z,12.69
2024-04-24T04:02:02.014Z,12.65
2024-04-24T04:02:59.252Z,12.52
2024-04-24T04:03:57.191Z,12.73
2024-04-24T04:04:55.694Z,12.65
2024-04-24T04:05:52.754Z,12.57
2024-04-24T04:06:49.821Z,12.75
2024-04-24T04:07:47.117Z,12.76
2024-04-24T04:08:44.144Z,12.63
2024-04-24T04:09:41.308Z,12.74
2024-04-24T04:10:38.396Z,12.48
2024-04-24T04:11:35.644Z,12.62
2024-04-24T04:12:32.811Z,12.70
2024-04-24T04:13:29.819Z,12.56
2024-04-24T04:14:26.977Z,12.75
2024-04-24T04:15:24.057Z,12.61
2024-04-24T04:16:21.111Z,12.64
2024-04-24T04:17:18.173Z,12.58
2024-04-24T04:18:15.367Z,12.57
2024-04-24T04:19:12.654Z,12.67
2024-04-24T04:20:10.143Z,12.75
2024-04-24T04:21:07.263Z,12.78
2024-04-24T04:22:04.631Z,12.75
2024-04-24T04:23:02.503Z,12.73
2024-04-24T04:23:59.840Z,12.68
2024-04-24T04:24:56.864Z,12.52
2024-04-24T04:25:53.961Z,12.58
2024-04-24T04:26:50.971Z,12.63
2024-04-24T04:27:47.960Z,12.57
2024-04-24T04:28:44.980Z,12.74
2024-04-24T04:29:42.038Z,12.76
2024-04-24T04:30:39.038Z,12.79
2024-04-24T04:31:36.092Z,13.09
2024-04-24T04:32:33.257Z,12.93
2024-04-24T04:33:30.650Z,13.06
2024-04-24T04:34:27.746Z,13.13
2024-04-24T04:35:24.798Z,13.22
2024-04-24T04:36:22.051Z,13.11
2024-04-24T04:37:19.314Z,13.27
2024-04-24T04:38:16.578Z,13.13
2024-04-24T04:39:13.902Z,13.16
2024-04-24T04:40:11.267Z,13.15
2024-04-24T04:41:08.557Z,13.15
2024-04-24T04:42:05.722Z,13.07
2024-04-24T04:43:03.687Z,13.27
2024-04-24T04:44:02.464Z,13.33
2024-04-24T04:45:03.810Z,13.46
2024-04-24T04:46:07.614Z,13.25
2024-04-24T04:47:10.271Z,13.15
2024-04-24T04:48:14.784Z,13.11
2024-04-24T04:49:12.123Z,13.12
2024-04-24T04:50:11.438Z,13.37
2024-04-24T04:51:09.278Z,13.43
2024-04-24T04:52:07.319Z,13.54
2024-04-24T04:53:07.845Z,13.70
2024-04-24T04:54:12.502Z,13.84
2024-04-24T04:55:59.171Z,13.66
2024-04-24T04:58:10.536Z,13.90
2024-04-24T04:59:17.879Z,13.99
2024-04-24T05:03:14.866Z,14.16
2024-04-24T05:16:41.490Z,13.77
2024-04-24T05:18:57.977Z,13.62
2024-04-24T05:20:09.918Z,13.89
2024-04-24T05:21:11.370Z,13.77
2024-04-24T05:22:32.833Z,13.94
2024-04-24T05:24:59.683Z,13.95
2024-04-24T05:26:48.746Z,13.99
2024-04-24T05:28:05.150Z,13.88
2024-04-24T05:29:06.160Z,13.86
2024-04-24T05:30:07.260Z,14.16
2024-04-24T05:31:18.780Z,14.27
2024-04-24T05:32:31.747Z,14.20
2024-04-24T05:36:16.577Z,14.26
2024-04-24T05:38:06.269Z,14.34
2024-04-24T05:42:33.571Z,13.86
2024-04-24T05:43:36.133Z,13.72
2024-04-24T05:47:19.974Z,13.71
2024-04-24T05:48:29.887Z,14.11
2024-04-24T05:49:30.277Z,13.69
2024-04-24T05:50:39.683Z,13.88
2024-04-24T05:51:39.389Z,13.68
2024-04-24T05:52:41.550Z,13.61
2024-04-24T05:54:46.121Z,14.19
2024-04-24T05:56:11.721Z,14.12
2024-04-24T05:57:32.890Z,14.29
2024-04-24T05:59:20.661Z,14.47
2024-04-24T06:03:36.154Z,14.24
2024-04-24T06:18:36.979Z,14.83
2024-04-24T06:27:25.203Z,15.00
2024-04-24T06:30:51.233Z,14.66
2024-04-24T07:29:45.289Z,15.96
2024-04-24T09:18:30.409Z,17.82
2024-04-24T09:49:12.327Z,17.67
2024-04-24T09:50:17.200Z,18.49
2024-04-24T09:57:47.218Z,18.54
2024-04-24T10:27:45.603Z,18.64
2024-04-24T10:31:20.136Z,18.54
2024-04-24T10:57:03.784Z,18.55
2024-04-24T12:27:13.477Z,20.03
2024-04-24T15:20:48.198Z,19.86
2024-04-24T15:21:56.071Z,20.31
2024-04-24T15:55:29.575Z,19.28
2024-04-24T15:56:27.075Z,19.89
2024-04-24T15:57:24.355Z,19.86
2024-04-24T15:58:22.713Z,19.86
2024-04-24T15:59:19.761Z,19.82
2024-04-24T16:00:16.954Z,19.32
2024-04-24T16:01:14.110Z,19.58
2024-04-24T16:02:11.212Z,19.54
2024-04-24T16:03:08.407Z,19.58
2024-04-24T16:04:05.501Z,19.51
2024-04-24T16:05:02.640Z,19.70
2024-04-24T16:05:59.771Z,19.68
2024-04-24T16:06:56.920Z,19.68
2024-04-24T16:07:53.969Z,19.61
2024-04-24T16:08:51.093Z,19.44
2024-04-24T16:09:48.153Z,19.54
2024-04-24T16:10:48.832Z,19.55
2024-04-24T16:11:45.950Z,19.43
2024-04-24T16:12:43.203Z,19.36
2024-04-24T16:13:40.440Z,19.43
2024-04-24T16:14:37.856Z,19.32
2024-04-24T16:15:34.856Z,19.34
2024-04-24T16:16:31.894Z,19.05
2024-04-24T16:17:29.120Z,19.06
2024-04-24T16:18:32.865Z,19.04
2024-04-24T16:19:33.534Z,19.22
2024-04-24T16:20:30.707Z,19.05
2024-04-24T16:21:28.541Z,19.08
2024-04-24T16:22:25.835Z,19.10
2024-04-24T16:23:23.478Z,19.00
2024-04-24T16:24:20.714Z,18.86
2024-04-24T16:25:17.756Z,18.94
2024-04-24T16:26:16.081Z,18.70
2024-04-24T16:27:13.364Z,18.77
2024-04-24T16:28:11.389Z,18.79
2024-04-24T16:29:08.411Z,18.73
2024-04-24T16:30:10.018Z,18.80
2024-04-24T16:31:07.046Z,18.85
2024-04-24T16:32:04.242Z,18.82
2024-04-24T16:33:01.332Z,18.68
2024-04-24T16:33:58.503Z,18.61
2024-04-24T16:34:55.882Z,18.68
2024-04-24T16:35:53.734Z,18.72
2024-04-24T16:36:50.680Z,18.68
2024-04-24T16:37:48.488Z,18.60
2024-04-24T16:38:45.590Z,18.54
2024-04-24T16:39:42.795Z,18.44
2024-04-24T16:40:40.707Z,18.61
2024-04-24T16:41:38.459Z,18.66
2024-04-24T16:42:35.511Z,18.62
2024-04-24T16:43:34.425Z,18.55
2024-04-24T16:44:31.471Z,18.33
2024-04-24T16:45:28.478Z,18.55
2024-04-24T16:46:26.520Z,18.50
2024-04-24T16:47:23.793Z,18.46
2024-04-24T16:48:21.080Z,18.30
2024-04-24T16:49:18.998Z,18.20
2024-04-24T16:50:16.119Z,18.31
2024-04-24T16:51:13.200Z,18.14
2024-04-24T16:52:13.772Z,18.14
2024-04-24T16:53:11.126Z,18.26
2024-04-24T16:54:08.095Z,18.01
2024-04-24T16:55:05.367Z,17.97
2024-04-24T16:56:02.327Z,18.21
2024-04-24T16:56:59.283Z,18.07
2024-04-24T16:57:56.223Z,18.03
2024-04-24T16:58:53.172Z,18.06
2024-04-24T16:59:50.143Z,17.84
2024-04-24T17:00:47.307Z,17.74
2024-04-24T17:01:44.265Z,18.00
2024-04-24T17:02:41.805Z,17.84
2024-04-24T17:03:39.814Z,17.61
2024-04-24T17:04:37.389Z,17.73
2024-04-24T17:05:34.407Z,17.63
2024-04-24T17:06:31.359Z,17.64
2024-04-24T17:07:28.374Z,17.66
2024-04-24T17:08:25.366Z,17.66
2024-04-24T17:09:22.340Z,17.62
2024-04-24T17:10:19.235Z,17.58
2024-04-24T17:11:16.338Z,17.52
2024-04-24T17:12:13.407Z,16.98
2024-04-24T17:13:10.349Z,17.42
2024-04-24T17:14:07.359Z,17.25
2024-04-24T17:15:05.663Z,17.39
2024-04-24T17:16:02.601Z,17.46
2024-04-24T17:16:59.761Z,17.23
2024-04-24T17:17:57.221Z,17.23
2024-04-24T17:18:54.404Z,17.24
2024-04-24T17:19:51.377Z,17.17
2024-04-24T17:20:49.009Z,17.23
2024-04-24T17:21:46.007Z,16.97
2024-04-24T17:22:43.322Z,16.96
2024-04-24T17:23:40.369Z,16.94
2024-04-24T17:24:37.360Z,16.79
2024-04-24T17:25:34.555Z,16.76
2024-04-24T17:26:36.939Z,16.89
2024-04-24T17:27:35.995Z,16.86
2024-04-24T17:28:32.954Z,16.91
2024-04-24T17:29:29.981Z,16.88
2024-04-24T17:30:26.968Z,16.87
2024-04-24T17:31:23.971Z,17.03
2024-04-24T17:32:21.443Z,16.80
2024-04-24T17:33:18.531Z,16.68
2024-04-24T17:34:15.549Z,16.62
2024-04-24T17:35:12.558Z,16.87
2024-04-24T17:36:10.762Z,16.90
2024-04-24T17:37:07.818Z,16.76
2024-04-24T17:38:05.085Z,16.72
2024-04-24T17:39:02.342Z,16.72
2024-04-24T17:39:59.335Z,16.79
2024-04-24T17:40:56.306Z,16.95
2024-04-24T17:41:53.599Z,16.89
2024-04-24T17:42:50.720Z,16.92
2024-04-24T17:43:47.679Z,16.74
2024-04-24T17:44:44.649Z,17.10
2024-04-24T17:45:42.203Z,17.12
2024-04-24T17:46:39.204Z,17.09
2024-04-24T17:47:36.308Z,16.79
2024-04-24T17:48:34.522Z,16.96
2024-04-24T17:49:31.552Z,16.92
2024-04-24T17:50:28.535Z,16.95
2024-04-24T17:51:25.818Z,16.75
2024-04-24T17:52:23.732Z,16.69
2024-04-24T17:53:20.779Z,16.64
2024-04-24T17:54:17.729Z,16.93
2024-04-24T17:55:14.776Z,16.77
2024-04-24T17:56:11.790Z,16.81
2024-04-24T17:57:08.814Z,16.92
2024-04-24T17:58:05.779Z,16.77
2024-04-24T17:59:02.961Z,16.81
2024-04-24T18:00:02.047Z,16.88
2024-04-24T18:00:59.196Z,16.86
2024-04-24T18:01:56.633Z,16.86
2024-04-24T18:02:53.633Z,16.81
2024-04-24T18:03:50.716Z,16.59
2024-04-24T18:04:47.780Z,16.40
2024-04-24T18:05:47.281Z,16.53
2024-04-24T18:06:44.418Z,16.61
2024-04-24T18:07:41.553Z,16.56
2024-04-24T18:08:38.569Z,16.55
2024-04-24T18:09:35.581Z,16.19
2024-04-24T18:10:32.628Z,16.46
2024-04-24T18:11:30.559Z,16.26
2024-04-24T18:12:27.867Z,16.44
2024-04-24T18:13:24.773Z,16.31
2024-04-24T18:14:21.813Z,16.35
2024-04-24T18:15:18.849Z,16.38
2024-04-24T18:16:15.961Z,16.31
2024-04-24T18:17:13.022Z,16.29
2024-04-24T18:18:10.163Z,16.15
2024-04-24T18:19:07.218Z,16.22
2024-04-24T18:20:04.739Z,16.23
2024-04-24T18:21:03.628Z,16.38
2024-04-24T18:22:00.600Z,16.44
2024-04-24T18:22:57.626Z,16.23
2024-04-24T18:23:54.633Z,16.44
2024-04-24T18:24:51.672Z,16.25
2024-04-24T18:25:48.965Z,16.30
2024-04-24T18:26:46.124Z,16.23
2024-04-24T18:27:45.078Z,16.32
2024-04-24T18:28:42.506Z,16.32
2024-04-24T18:29:39.689Z,16.26
2024-04-24T18:30:36.813Z,16.05
2024-04-24T18:31:33.926Z,16.14
2024-04-24T18:32:31.009Z,16.07
2024-04-24T18:33:28.256Z,16.13
2024-04-24T18:34:25.338Z,15.93
2024-04-24T18:35:22.678Z,16.04
2024-04-24T18:36:19.943Z,16.13
2024-04-24T18:37:17.104Z,16.25
2024-04-24T18:38:14.176Z,16.10
2024-04-24T18:39:11.466Z,16.27
2024-04-24T18:40:10.168Z,16.25
2024-04-24T18:41:08.304Z,16.33
2024-04-24T18:42:05.502Z,16.17
2024-04-24T18:43:02.629Z,16.04
2024-04-24T18:43:59.937Z,15.98
2024-04-24T18:44:56.995Z,15.95
2024-04-24T18:45:54.059Z,16.15
2024-04-24T18:46:51.064Z,15.85
2024-04-24T18:47:48.174Z,16.15
2024-04-24T18:48:45.349Z,16.12
2024-04-24T18:49:42.603Z,16.07
2024-04-24T18:50:39.981Z,15.95
2024-04-24T18:51:37.112Z,16.15
2024-04-24T18:52:34.118Z,16.20
2024-04-24T18:53:32.174Z,16.15
2024-04-24T18:54:29.242Z,15.83
2024-04-24T18:55:26.310Z,16.09
2024-04-24T18:56:24.311Z,15.98
2024-04-24T18:57:21.309Z,16.05
2024-04-24T18:58:18.439Z,16.00
2024-04-24T18:59:15.542Z,15.81
2024-04-24T19:00:13.782Z,15.95
2024-04-24T19:01:11.088Z,15.81
2024-04-24T19:02:08.296Z,15.97
2024-04-24T19:03:05.799Z,16.02
2024-04-24T19:04:03.524Z,15.95
2024-04-24T19:05:00.616Z,15.91
2024-04-24T19:05:57.736Z,15.58
2024-04-24T19:06:54.796Z,15.82
2024-04-24T19:07:51.834Z,15.85
2024-04-24T19:08:50.556Z,15.80
2024-04-24T19:09:47.583Z,15.65
2024-04-24T19:10:44.643Z,15.59
2024-04-24T19:11:42.118Z,15.77
2024-04-24T19:12:39.254Z,15.64
2024-04-24T19:13:36.457Z,15.74
2024-04-24T19:14:33.584Z,15.58
2024-04-24T19:15:30.931Z,15.71
2024-04-24T19:16:28.066Z,15.57
2024-04-24T19:17:26.568Z,15.69
2024-04-24T19:18:24.377Z,15.47
2024-04-24T19:19:21.593Z,15.30
2024-04-24T19:20:18.603Z,15.47
2024-04-24T19:21:15.996Z,15.49
2024-04-24T19:22:13.481Z,15.55
2024-04-24T19:23:10.981Z,15.50
2024-04-24T19:24:08.196Z,15.10
2024-04-24T19:25:05.702Z,15.46
2024-04-24T19:26:02.961Z,15.20
2024-04-24T19:27:00.053Z,15.17
2024-04-24T19:27:57.137Z,15.50
2024-04-24T19:28:54.106Z,15.38
2024-04-24T19:29:51.142Z,15.41
2024-04-24T19:30:48.148Z,15.08
2024-04-24T19:31:45.265Z,15.16
2024-04-24T19:32:42.483Z,14.86
2024-04-24T19:33:39.688Z,15.17
2024-04-24T19:34:36.776Z,15.12
2024-04-24T19:35:34.081Z,15.11
2024-04-24T19:36:31.175Z,15.14
2024-04-24T19:37:30.882Z,15.06
2024-04-24T19:38:28.181Z,15.11
2024-04-24T19:39:25.235Z,15.20
2024-04-24T19:40:23.713Z,15.18
2024-04-24T19:41:21.390Z,14.94
2024-04-24T19:42:18.515Z,14.99
2024-04-24T19:43:15.643Z,14.76
2024-04-24T19:44:13.595Z,14.27
2024-04-24T19:45:10.723Z,14.81
2024-04-24T19:46:08.537Z,14.81
2024-04-24T19:47:05.603Z,14.83
2024-04-24T19:48:02.724Z,14.73
2024-04-24T19:48:59.755Z,14.73
2024-04-24T19:49:56.748Z,14.51
2024-04-24T19:50:53.858Z,14.59
2024-04-24T19:51:50.889Z,14.53
2024-04-24T19:52:48.516Z,14.63
2024-04-24T19:53:45.585Z,14.59
2024-04-24T19:54:43.855Z,14.55
2024-04-24T19:55:40.871Z,14.80
2024-04-24T19:56:39.933Z,14.70
2024-04-24T19:57:37.143Z,14.51
2024-04-24T19:58:34.650Z,14.47
2024-04-24T19:59:32.074Z,14.66
2024-04-24T20:00:29.188Z,14.41
2024-04-24T20:01:26.235Z,14.45
2024-04-24T20:02:25.308Z,14.38
2024-04-24T20:03:25.179Z,14.19
2024-04-24T20:04:22.694Z,14.32
2024-04-24T20:05:19.904Z,14.26
2024-04-24T20:06:19.374Z,14.24
2024-04-24T20:07:16.505Z,14.12
2024-04-24T20:08:13.786Z,13.92
2024-04-24T20:09:10.784Z,13.99
2024-04-24T20:10:10.391Z,14.25
2024-04-24T20:11:09.099Z,14.07
2024-04-24T20:12:06.326Z,14.14
2024-04-24T20:13:03.502Z,13.96
2024-04-24T20:14:00.637Z,14.01
2024-04-24T20:14:58.798Z,13.78
2024-04-24T20:16:02.392Z,13.60
2024-04-24T20:16:59.453Z,14.04
2024-04-24T20:17:57.704Z,13.59
2024-04-24T20:18:54.901Z,13.72
2024-04-24T20:19:51.918Z,14.13
2024-04-24T20:20:48.969Z,13.98
2024-04-24T20:21:46.145Z,14.14
2024-04-24T20:22:46.124Z,13.84
2024-04-24T20:23:43.427Z,13.93
2024-04-24T20:24:40.666Z,14.14
2024-04-24T20:25:37.844Z,13.97
2024-04-24T20:26:34.983Z,14.04
2024-04-24T20:27:32.332Z,13.76
2024-04-24T20:28:31.539Z,13.86
2024-04-24T20:29:28.617Z,13.87
2024-04-24T20:30:26.522Z,14.02
2024-04-24T20:31:27.921Z,13.91
2024-04-24T20:32:25.146Z,14.05
2024-04-24T20:33:25.097Z,14.05
2024-04-24T20:34:22.197Z,13.90
2024-04-24T20:35:19.299Z,14.06
2024-04-24T20:36:16.522Z,14.21
2024-04-24T20:37:13.714Z,14.11
2024-04-24T20:38:12.445Z,14.20
2024-04-24T20:39:10.391Z,14.05
2024-04-24T20:40:08.040Z,14.20
2024-04-24T20:41:07.495Z,14.06
2024-04-24T20:42:06.395Z,14.16
2024-04-24T20:43:05.302Z,14.16
2024-04-24T20:44:03.424Z,13.95
2024-04-24T20:45:00.904Z,14.19
2024-04-24T20:45:57.969Z,14.18
2024-04-24T20:46:55.063Z,13.91
2024-04-24T20:47:52.606Z,14.12
2024-04-24T20:48:50.178Z,14.06
2024-04-24T20:49:47.545Z,13.91
2024-04-24T20:50:44.888Z,13.96
2024-04-24T20:51:42.648Z,13.99
2024-04-24T20:52:39.920Z,13.68
2024-04-24T20:53:37.310Z,13.83
2024-04-24T20:54:34.727Z,13.81
2024-04-24T20:55:33.207Z,13.87
2024-04-24T20:56:30.360Z,13.87
2024-04-24T20:57:27.799Z,13.86
2024-04-24T20:58:24.971Z,13.90
2024-04-24T20:59:24.073Z,13.65
2024-04-24T21:00:21.229Z,13.66
2024-04-24T21:01:18.763Z,13.64
2024-04-24T21:02:16.203Z,13.76
2024-04-24T21:03:14.096Z,13.73
2024-04-24T21:04:11.527Z,13.81
2024-04-24T21:05:08.781Z,13.69
2024-04-24T21:06:07.333Z,13.38
2024-04-24T21:07:05.256Z,13.67
2024-04-24T21:08:02.412Z,13.59
2024-04-24T21:08:59.526Z,13.59
2024-04-24T21:09:56.638Z,13.41
2024-04-24T21:10:53.637Z,13.60
2024-04-24T21:11:51.259Z,13.76
2024-04-24T21:12:48.403Z,13.90
2024-04-24T21:13:45.695Z,13.63
2024-04-24T21:14:43.194Z,13.72
2024-04-24T21:15:42.337Z,13.86
2024-04-24T21:16:39.569Z,13.78
2024-04-24T21:17:36.594Z,13.56
2024-04-24T21:18:34.988Z,13.54
2024-04-24T21:19:32.126Z,13.72
2024-04-24T21:20:29.177Z,13.63
2024-04-24T21:21:27.836Z,13.46
2024-04-24T21:22:25.190Z,13.63
2024-04-24T21:23:22.359Z,13.61
2024-04-24T21:24:19.761Z,13.76
2024-04-24T21:25:17.065Z,13.82
2024-04-24T21:26:14.560Z,13.79
2024-04-24T21:27:14.445Z,13.69
2024-04-24T21:28:14.686Z,13.73
2024-04-24T21:29:12.770Z,13.64
2024-04-24T21:30:10.552Z,13.50
2024-04-24T21:31:07.888Z,13.53
2024-04-24T21:32:05.277Z,13.87
2024-04-24T21:33:03.199Z,13.64
2024-04-24T21:34:00.665Z,13.66
2024-04-24T21:34:57.967Z,13.86
2024-04-24T21:35:56.629Z,13.85
2024-04-24T21:36:53.576Z,13.89
2024-04-24T21:37:51.459Z,13.76
2024-04-24T21:38:48.499Z,13.98
2024-04-24T21:39:45.515Z,14.00
2024-04-24T21:40:42.579Z,13.92
2024-04-24T21:41:39.840Z,13.56
2024-04-24T21:42:37.065Z,14.04
2024-04-24T21:43:34.783Z,14.00
2024-04-24T21:44:32.098Z,13.92
2024-04-24T21:45:29.234Z,13.75
2024-04-24T21:46:26.681Z,13.85
2024-04-24T21:47:23.819Z,13.79
2024-04-24T21:48:21.310Z,13.79
2024-04-24T21:49:18.528Z,13.80
2024-04-24T21:50:15.740Z,13.69
2024-04-24T21:51:13.068Z,13.83
2024-04-24T21:52:13.369Z,13.85
2024-04-24T21:53:10.967Z,13.71
2024-04-24T21:54:08.197Z,13.76
2024-04-24T21:55:05.835Z,13.77
2024-04-24T21:56:02.943Z,13.91
2024-04-24T21:57:00.275Z,13.91
2024-04-24T21:57:57.692Z,13.76
2024-04-24T21:58:56.119Z,13.87
2024-04-24T21:59:53.660Z,13.85
2024-04-24T22:00:51.155Z,13.78
2024-04-24T22:01:49.846Z,13.50
2024-04-24T22:02:47.511Z,13.82
2024-04-24T22:03:44.737Z,13.98
2024-04-24T22:04:41.760Z,13.99
2024-04-24T22:05:39.208Z,13.94
2024-04-24T22:06:38.955Z,13.93
2024-04-24T22:07:36.092Z,14.13
2024-04-24T22:08:33.277Z,14.01
2024-04-24T22:09:30.293Z,13.72
2024-04-24T22:10:27.249Z,14.07
2024-04-24T22:11:24.570Z,14.04
2024-04-24T22:12:21.527Z,14.07
2024-04-24T22:13:18.512Z,13.73
2024-04-24T22:14:15.763Z,14.10
2024-04-24T22:15:12.702Z,13.83
2024-04-24T22:16:09.873Z,14.12
2024-04-24T22:17:16.500Z,14.22
2024-04-24T22:18:18.946Z,14.17
2024-04-24T22:19:16.770Z,14.25
2024-04-24T22:20:14.963Z,14.03
2024-04-24T22:21:12.098Z,14.22
2024-04-24T22:22:09.084Z,14.18
2024-04-24T22:23:06.112Z,14.16
2024-04-24T22:24:03.014Z,14.15
2024-04-24T22:25:00.117Z,14.06
2024-04-24T22:25:57.304Z,13.79
2024-04-24T22:26:54.419Z,14.13
2024-04-24T22:27:51.458Z,14.18
2024-04-24T22:28:48.789Z,14.15
2024-04-24T22:29:45.999Z,14.02
2024-04-24T22:30:43.044Z,14.19
2024-04-24T22:31:40.181Z,13.90
2024-04-24T22:32:37.467Z,13.87
2024-04-24T22:33:34.486Z,13.90
2024-04-24T22:34:32.091Z,13.69
2024-04-24T22:35:29.602Z,13.87
2024-04-24T22:36:26.652Z,13.93
2024-04-24T22:37:23.624Z,13.58
2024-04-24T22:38:20.628Z,13.65
2024-04-24T22:39:17.620Z,13.82
2024-04-24T22:40:14.891Z,13.85
2024-04-24T22:41:12.124Z,13.84